Boncarbo, Colorado
Current Conditions -  °F | °C
As of 3:54 PM on Wednesday 26 Nov 2014 (Local Time) from KTAD Reporting Station
Clear Clear  
Wind Chill:   Ceiling: Unl
Heat Index:   Visibility: 10mi
Dew Point:   Wind: 5mph
Humidity: 63%   Direction: 140°SE
Pressure: 30.21"   Gusts: NA
Location:  37.22°N, 104.7°W
Report Text: KTAD 262254Z AUTO 14004KT 10SM CLR 07/01 A3021 RMK AO2 SLP227 T00720006
Loading
Personal Weather Stations






























Interactive Weather Map New forecast layout! Learn more

10-Day Weather Forecast

Advertisements
Track Severe Weather on mobile